S 386 Casilo — OZZP — position and weather

sailwx.info

Track history (hours):
 
Tides and Currents Weather Stations Pressure Air Temp Water Temp Dewpoint Dewpoint Depression Visibility Wind Speed Wind Dir Waves Ship Positions

S 386 Casilo

Last reported at 2018-Apr-26 06:31 UTC. Time now 2018-Apr-26 09:36 UTC.
Position N 57°43' E 010°36'.

Length 24 m.

Type: Fishing. MMSI: 219948000.

Date/timePositionNaut miles runAvg speedWind from/ knotsBaromVisibWave heightAir tempDewpointWater temp
2018-Apr-26 06:31N 57°43' E 010°36'0 0.7
2018-Apr-26 06:29N 57°43' E 010°36'0 0.1
2018-Apr-26 06:01N 57°43' E 010°36'0 0.0
2018-Apr-26 05:30N 57°43' E 010°36'0 0.0
2018-Apr-26 05:00N 57°43' E 010°36'5 5.6
2018-Apr-26 04:06N 57°45' E 010°44'1 8.4
2018-Apr-26 04:00N 57°46' E 010°45'4 8.0
2018-Apr-26 03:30N 57°49' E 010°49'4 8.2
2018-Apr-26 03:00N 57°53' E 010°53'4 8.3
2018-Apr-26 02:31N 57°56' E 010°56'4 8.3
2018-Apr-26 02:00N 58°00' E 010°59'4 8.5
2018-Apr-26 01:30N 58°04' E 011°02'4 8.6
2018-Apr-26 01:00N 58°08' E 011°04'4 8.2
2018-Apr-26 00:30N 58°12' E 011°07'6 8.1
2018-Apr-25 23:48N 58°17' E 011°11'2 8.1
2018-Apr-25 23:30N 58°20' E 011°13'2 3.2
2018-Apr-25 23:00N 58°21' E 011°14'0 0.0
2018-Apr-25 22:30N 58°21' E 011°14'0 0.2
2018-Apr-25 22:00N 58°21' E 011°14'3 5.4
2018-Apr-25 21:30N 58°19' E 011°12'3 6.0
2018-Apr-25 21:00N 58°17' E 011°08'3 6.2
2018-Apr-25 20:30N 58°14' E 011°04'3 6.1
2018-Apr-25 19:59N 58°12' E 010°60'3 6.5
2018-Apr-25 19:30N 58°10' E 010°56'3 6.6
2018-Apr-25 19:00N 58°07' E 010°52'3 6.3
2018-Apr-25 18:30N 58°04' E 010°49'3 5.8
2018-Apr-25 18:00N 58°02' E 010°46'1 1.2
2018-Apr-25 17:30N 58°02' E 010°45'1 1.0
2018-Apr-25 16:59N 58°02' E 010°44'1 1.9
2018-Apr-25 16:30N 58°02' E 010°43'1 1.9
2018-Apr-25 16:00N 58°03' E 010°41'1 1.9
2018-Apr-25 15:30N 58°04' E 010°41'1 2.0
2018-Apr-25 15:00N 58°05' E 010°40'1 2.0
2018-Apr-25 14:30N 58°05' E 010°38'1 2.0
2018-Apr-25 14:00N 58°06' E 010°37'1 2.0
2018-Apr-25 13:22N 58°07' E 010°35'1 2.0
2018-Apr-25 13:00N 58°07' E 010°34'1 2.0
2018-Apr-25 12:29N 58°08' E 010°32'36 1.1
2018-Apr-24 04:10N 57°59' E 009°27'8 0.5
2018-Apr-23 13:12N 57°55' E 009°15'0 2.0
2018-Apr-23 12:59N 57°55' E 009°15'1 2.0
2018-Apr-23 12:29N 57°54' E 009°13'13 1.3
2018-Apr-23 02:19N 58°01' E 009°34'3 9.9
2018-Apr-23 02:00N 58°02' E 009°39'510.2
2018-Apr-23 01:29N 58°04' E 009°48'510.0
2018-Apr-23 00:58N 58°07' E 009°57'3 7.1
2018-Apr-23 00:30N 58°09' E 010°02'0 0.9
2018-Apr-23 00:01N 58°08' E 010°03'1 1.4
2018-Apr-22 23:30N 58°08' E 010°01'1 1.9
2018-Apr-22 23:00N 58°08' E 009°60'1 1.9
2018-Apr-22 22:30N 58°07' E 009°58'1 1.9
2018-Apr-22 22:00N 58°07' E 009°57'1 2.0
2018-Apr-22 21:29N 58°06' E 009°55'1 2.0
2018-Apr-22 21:00N 58°06' E 009°53'1 2.1
2018-Apr-22 20:30N 58°05' E 009°52'1 2.1
2018-Apr-22 20:00N 58°05' E 009°50'1 2.1
2018-Apr-22 19:30N 58°04' E 009°48'1 2.4
2018-Apr-22 19:00N 58°04' E 009°46'3 5.6
2018-Apr-22 18:30N 58°01' E 009°46'510.1
2018-Apr-22 18:00N 57°56' E 009°48'510.4
2018-Apr-22 17:30N 57°51' E 009°50'510.3
2018-Apr-22 17:00N 57°46' E 009°53'510.0
2018-Apr-22 16:30N 57°41' E 009°56'5 9.0
2018-Apr-22 16:00N 57°37' E 009°58'1 0.9
2018-Apr-22 14:40N 57°36' E 009°58'1 7.1
2018-Apr-22 14:30N 57°37' E 009°57'5 9.9
2018-Apr-22 13:58N 57°42' E 009°60'4 9.7
2018-Apr-22 13:30N 57°46' E 010°01'5 9.8
2018-Apr-22 12:59N 57°51' E 010°02'5 9.7
2018-Apr-22 12:30N 57°56' E 010°04'5 9.5
2018-Apr-22 12:00N 58°01' E 010°05'5 9.8
2018-Apr-22 11:30N 58°06' E 010°07'5 9.8
2018-Apr-22 11:00N 58°10' E 010°10'3 5.6
2018-Apr-22 10:30N 58°13' E 010°11'0 0.5
2018-Apr-22 10:00N 58°13' E 010°11'1 1.8
2018-Apr-22 09:30N 58°13' E 010°09'4 1.8
2018-Apr-22 07:28N 58°11' E 010°03'2 1.9
2018-Apr-22 06:36N 58°10' E 010°00'0 2.0
2018-Apr-22 06:29N 58°10' E 009°60'1 1.9
2018-Apr-22 06:00N 58°10' E 009°58'1 2.0
2018-Apr-22 05:30N 58°09' E 009°57'1 2.0
2018-Apr-22 04:53N 58°08' E 009°55'1 2.0
2018-Apr-22 04:22N 58°08' E 009°53'3 2.0
2018-Apr-22 03:03N 58°06' E 009°49'0 2.0
2018-Apr-22 02:50N 58°06' E 009°48'9 3.3
2018-Apr-22 00:05N 58°10' E 010°04'0 0.8
2018-Apr-21 23:55N 58°10' E 010°04'0 0.6
2018-Apr-21 23:30N 58°10' E 010°04'1 1.1
2018-Apr-21 23:00N 58°10' E 010°03'1 1.8
2018-Apr-21 22:30N 58°09' E 010°01'1 1.9
2018-Apr-21 22:00N 58°09' E 009°60'1 2.0
2018-Apr-21 21:30N 58°08' E 009°58'1 2.0
2018-Apr-21 21:00N 58°08' E 009°57'1 1.9
2018-Apr-21 20:30N 58°07' E 009°55'1 1.9
2018-Apr-21 20:00N 58°07' E 009°54'1 2.0
2018-Apr-21 19:30N 58°06' E 009°52'1 2.0
2018-Apr-21 19:00N 58°05' E 009°51'1 2.0
2018-Apr-21 18:30N 58°05' E 009°49'1 2.0
2018-Apr-21 18:00N 58°04' E 009°48'1 2.0
2018-Apr-21 17:30N 58°04' E 009°46'1 2.0
2018-Apr-21 17:00N 58°03' E 009°45'1 2.1
2018-Apr-21 16:30N 58°03' E 009°43'1 2.1
2018-Apr-21 16:00N 58°02' E 009°41'1 2.1
2018-Apr-21 15:30N 58°02' E 009°40'1 2.5
2018-Apr-21 15:00N 58°01' E 009°38'1 1.9
2018-Apr-21 14:30N 58°00' E 009°36'3 6.9
2018-Apr-21 14:00N 58°02' E 009°41'3 5.9
2018-Apr-21 13:30N 58°04' E 009°46'1 1.2
2018-Apr-21 13:00N 58°03' E 009°46'1 1.3
2018-Apr-21 12:30N 58°03' E 009°45'1 2.0
2018-Apr-21 12:00N 58°02' E 009°44'1 1.9
2018-Apr-21 11:30N 58°02' E 009°42'20 1.5
2018-Apr-20 22:10N 57°52' E 009°09'0 2.0
2018-Apr-20 21:59N 57°52' E 009°09'1 2.0
2018-Apr-20 21:30N 57°52' E 009°07'1 2.0
2018-Apr-20 20:59N 57°51' E 009°05'1 2.1
2018-Apr-20 20:30N 57°51' E 009°04'1 2.2
2018-Apr-20 19:58N 57°50' E 009°02'1 2.3
2018-Apr-20 19:30N 57°50' E 008°60'1 2.3
2018-Apr-20 18:59N 57°50' E 008°58'20 1.0
2018-Apr-19 21:49N 57°37' E 008°29'3 8.8
2018-Apr-19 21:30N 57°37' E 008°34'5 8.8
2018-Apr-19 20:57N 57°38' E 008°43'4 9.0
2018-Apr-19 20:29N 57°38' E 008°51'40 8.9
2018-Apr-19 16:01N 57°44' E 010°04'0 9.0
2018-Apr-19 15:59N 57°44' E 010°05'6 9.1
2018-Apr-19 15:17N 57°45' E 010°16'3 9.1
2018-Apr-19 14:58N 57°45' E 010°22'11 9.2
2018-Apr-19 13:44N 57°46' E 010°43'2 8.4
2018-Apr-19 13:30N 57°44' E 010°42'4 5.8
2018-Apr-19 12:51N 57°43' E 010°35'0 0.0
2018-Apr-19 12:28N 57°43' E 010°35'0 0.0
2018-Apr-19 12:00N 57°43' E 010°35'0 0.0
2018-Apr-19 11:22N 57°43' E 010°35'0 0.0
2018-Apr-19 10:59N 57°43' E 010°35'0 0.0
2018-Apr-19 10:30N 57°43' E 010°35'0 0.0
2018-Apr-19 09:55N 57°43' E 010°35'0 0.3
2018-Apr-19 09:30N 57°43' E 010°36'0 0.0
2018-Apr-19 09:00N 57°43' E 010°36'3 3.9
2018-Apr-19 08:09N 57°44' E 010°42'1 8.8
2018-Apr-19 08:00N 57°45' E 010°43'4 9.0
2018-Apr-19 07:30N 57°48' E 010°36'5 9.5
2018-Apr-19 06:56N 57°50' E 010°27'7 9.4
2018-Apr-19 06:13N 57°54' E 010°17'10 9.0
2018-Apr-19 05:04N 57°59' E 009°59'10 7.4
2018-Apr-19 03:45N 58°03' E 009°43'5 1.6
2018-Apr-19 00:47N 58°00' E 009°35'1 2.1
2018-Apr-19 00:22N 57°60' E 009°33'6 2.0
2018-Apr-18 21:17N 57°57' E 009°23'5 2.1
2018-Apr-18 18:48N 57°55' E 009°14'1 2.1
2018-Apr-18 18:10N 57°54' E 009°12'5 2.1
2018-Apr-18 15:33N 57°53' E 009°02'1 2.1
2018-Apr-18 15:02N 57°52' E 009°00'1 2.0
2018-Apr-18 14:34N 57°52' E 008°59'1 1.9
2018-Apr-18 14:18N 57°51' E 008°58'1 1.9
2018-Apr-18 13:59N 57°51' E 008°57'3 3.2
2018-Apr-18 12:58N 57°50' E 008°51'1 0.5
2018-Apr-18 11:40N 57°50' E 008°52'1 1.4
2018-Apr-18 11:04N 57°50' E 008°50'0 6.0
2018-Apr-18 11:00N 57°49' E 008°50'3 5.9
2018-Apr-18 10:31N 57°48' E 008°45'1 1.3
2018-Apr-18 09:51N 57°47' E 008°46'6 0.4
2018-Apr-17 20:20N 57°44' E 008°37'1 2.1
2018-Apr-17 20:01N 57°44' E 008°36'1 2.4
2018-Apr-17 19:31N 57°44' E 008°34'2 4.0
2018-Apr-17 19:00N 57°43' E 008°37'2 0.1
2018-Apr-16 11:14N 57°45' E 008°39'0 2.0
2018-Apr-16 11:00N 57°45' E 008°38'  
Track history (hours):
 
Tides and Currents Weather Stations Pressure Air Temp Water Temp Dewpoint Dewpoint Depression Visibility Wind Speed Wind Dir Waves Ship Positions

S 386 Casilo

Last reported at 2018-Apr-26 06:31 UTC. Time now 2018-Apr-26 09:36 UTC.
Position N 57°43' E 010°36'.

Length 24 m.

Type: Fishing. MMSI: 219948000.

Date/timePositionNaut miles runAvg speedWind from/ knotsBaromVisibWave heightAir tempDewpointWater temp
2018-Apr-26 06:31N 57°43' E 010°36'0 0.7
2018-Apr-26 06:29N 57°43' E 010°36'0 0.1
2018-Apr-26 06:01N 57°43' E 010°36'0 0.0
2018-Apr-26 05:30N 57°43' E 010°36'0 0.0
2018-Apr-26 05:00N 57°43' E 010°36'5 5.6
2018-Apr-26 04:06N 57°45' E 010°44'1 8.4
2018-Apr-26 04:00N 57°46' E 010°45'4 8.0
2018-Apr-26 03:30N 57°49' E 010°49'4 8.2
2018-Apr-26 03:00N 57°53' E 010°53'4 8.3
2018-Apr-26 02:31N 57°56' E 010°56'4 8.3
2018-Apr-26 02:00N 58°00' E 010°59'4 8.5
2018-Apr-26 01:30N 58°04' E 011°02'4 8.6
2018-Apr-26 01:00N 58°08' E 011°04'4 8.2
2018-Apr-26 00:30N 58°12' E 011°07'6 8.1
2018-Apr-25 23:48N 58°17' E 011°11'2 8.1
2018-Apr-25 23:30N 58°20' E 011°13'2 3.2
2018-Apr-25 23:00N 58°21' E 011°14'0 0.0
2018-Apr-25 22:30N 58°21' E 011°14'0 0.2
2018-Apr-25 22:00N 58°21' E 011°14'3 5.4
2018-Apr-25 21:30N 58°19' E 011°12'3 6.0
2018-Apr-25 21:00N 58°17' E 011°08'3 6.2
2018-Apr-25 20:30N 58°14' E 011°04'3 6.1
2018-Apr-25 19:59N 58°12' E 010°60'3 6.5
2018-Apr-25 19:30N 58°10' E 010°56'3 6.6
2018-Apr-25 19:00N 58°07' E 010°52'3 6.3
2018-Apr-25 18:30N 58°04' E 010°49'3 5.8
2018-Apr-25 18:00N 58°02' E 010°46'1 1.2
2018-Apr-25 17:30N 58°02' E 010°45'1 1.0
2018-Apr-25 16:59N 58°02' E 010°44'1 1.9
2018-Apr-25 16:30N 58°02' E 010°43'1 1.9
2018-Apr-25 16:00N 58°03' E 010°41'1 1.9
2018-Apr-25 15:30N 58°04' E 010°41'1 2.0
2018-Apr-25 15:00N 58°05' E 010°40'1 2.0
2018-Apr-25 14:30N 58°05' E 010°38'1 2.0
2018-Apr-25 14:00N 58°06' E 010°37'1 2.0
2018-Apr-25 13:22N 58°07' E 010°35'1 2.0
2018-Apr-25 13:00N 58°07' E 010°34'1 2.0
2018-Apr-25 12:29N 58°08' E 010°32'36 1.1
2018-Apr-24 04:10N 57°59' E 009°27'8 0.5
2018-Apr-23 13:12N 57°55' E 009°15'0 2.0
2018-Apr-23 12:59N 57°55' E 009°15'1 2.0
2018-Apr-23 12:29N 57°54' E 009°13'13 1.3
2018-Apr-23 02:19N 58°01' E 009°34'3 9.9
2018-Apr-23 02:00N 58°02' E 009°39'510.2
2018-Apr-23 01:29N 58°04' E 009°48'510.0
2018-Apr-23 00:58N 58°07' E 009°57'3 7.1
2018-Apr-23 00:30N 58°09' E 010°02'0 0.9
2018-Apr-23 00:01N 58°08' E 010°03'1 1.4
2018-Apr-22 23:30N 58°08' E 010°01'1 1.9
2018-Apr-22 23:00N 58°08' E 009°60'1 1.9
2018-Apr-22 22:30N 58°07' E 009°58'1 1.9
2018-Apr-22 22:00N 58°07' E 009°57'1 2.0
2018-Apr-22 21:29N 58°06' E 009°55'1 2.0
2018-Apr-22 21:00N 58°06' E 009°53'1 2.1
2018-Apr-22 20:30N 58°05' E 009°52'1 2.1
2018-Apr-22 20:00N 58°05' E 009°50'1 2.1
2018-Apr-22 19:30N 58°04' E 009°48'1 2.4
2018-Apr-22 19:00N 58°04' E 009°46'3 5.6
2018-Apr-22 18:30N 58°01' E 009°46'510.1
2018-Apr-22 18:00N 57°56' E 009°48'510.4
2018-Apr-22 17:30N 57°51' E 009°50'510.3
2018-Apr-22 17:00N 57°46' E 009°53'510.0
2018-Apr-22 16:30N 57°41' E 009°56'5 9.0
2018-Apr-22 16:00N 57°37' E 009°58'1 0.9
2018-Apr-22 14:40N 57°36' E 009°58'1 7.1
2018-Apr-22 14:30N 57°37' E 009°57'5 9.9
2018-Apr-22 13:58N 57°42' E 009°60'4 9.7
2018-Apr-22 13:30N 57°46' E 010°01'5 9.8
2018-Apr-22 12:59N 57°51' E 010°02'5 9.7
2018-Apr-22 12:30N 57°56' E 010°04'5 9.5
2018-Apr-22 12:00N 58°01' E 010°05'5 9.8
2018-Apr-22 11:30N 58°06' E 010°07'5 9.8
2018-Apr-22 11:00N 58°10' E 010°10'3 5.6
2018-Apr-22 10:30N 58°13' E 010°11'0 0.5
2018-Apr-22 10:00N 58°13' E 010°11'1 1.8
2018-Apr-22 09:30N 58°13' E 010°09'4 1.8
2018-Apr-22 07:28N 58°11' E 010°03'2 1.9
2018-Apr-22 06:36N 58°10' E 010°00'0 2.0
2018-Apr-22 06:29N 58°10' E 009°60'1 1.9
2018-Apr-22 06:00N 58°10' E 009°58'1 2.0
2018-Apr-22 05:30N 58°09' E 009°57'1 2.0
2018-Apr-22 04:53N 58°08' E 009°55'1 2.0
2018-Apr-22 04:22N 58°08' E 009°53'3 2.0
2018-Apr-22 03:03N 58°06' E 009°49'0 2.0
2018-Apr-22 02:50N 58°06' E 009°48'9 3.3
2018-Apr-22 00:05N 58°10' E 010°04'0 0.8
2018-Apr-21 23:55N 58°10' E 010°04'0 0.6
2018-Apr-21 23:30N 58°10' E 010°04'1 1.1
2018-Apr-21 23:00N 58°10' E 010°03'1 1.8
2018-Apr-21 22:30N 58°09' E 010°01'1 1.9
2018-Apr-21 22:00N 58°09' E 009°60'1 2.0
2018-Apr-21 21:30N 58°08' E 009°58'1 2.0
2018-Apr-21 21:00N 58°08' E 009°57'1 1.9
2018-Apr-21 20:30N 58°07' E 009°55'1 1.9
2018-Apr-21 20:00N 58°07' E 009°54'1 2.0
2018-Apr-21 19:30N 58°06' E 009°52'1 2.0
2018-Apr-21 19:00N 58°05' E 009°51'1 2.0
2018-Apr-21 18:30N 58°05' E 009°49'1 2.0
2018-Apr-21 18:00N 58°04' E 009°48'1 2.0
2018-Apr-21 17:30N 58°04' E 009°46'1 2.0
2018-Apr-21 17:00N 58°03' E 009°45'1 2.1
2018-Apr-21 16:30N 58°03' E 009°43'1 2.1
2018-Apr-21 16:00N 58°02' E 009°41'1 2.1
2018-Apr-21 15:30N 58°02' E 009°40'1 2.5
2018-Apr-21 15:00N 58°01' E 009°38'1 1.9
2018-Apr-21 14:30N 58°00' E 009°36'3 6.9
2018-Apr-21 14:00N 58°02' E 009°41'3 5.9
2018-Apr-21 13:30N 58°04' E 009°46'1 1.2
2018-Apr-21 13:00N 58°03' E 009°46'1 1.3
2018-Apr-21 12:30N 58°03' E 009°45'1 2.0
2018-Apr-21 12:00N 58°02' E 009°44'1 1.9
2018-Apr-21 11:30N 58°02' E 009°42'20 1.5
2018-Apr-20 22:10N 57°52' E 009°09'0 2.0
2018-Apr-20 21:59N 57°52' E 009°09'1 2.0
2018-Apr-20 21:30N 57°52' E 009°07'1 2.0
2018-Apr-20 20:59N 57°51' E 009°05'1 2.1
2018-Apr-20 20:30N 57°51' E 009°04'1 2.2
2018-Apr-20 19:58N 57°50' E 009°02'1 2.3
2018-Apr-20 19:30N 57°50' E 008°60'1 2.3
2018-Apr-20 18:59N 57°50' E 008°58'20 1.0
2018-Apr-19 21:49N 57°37' E 008°29'3 8.8
2018-Apr-19 21:30N 57°37' E 008°34'5 8.8
2018-Apr-19 20:57N 57°38' E 008°43'4 9.0
2018-Apr-19 20:29N 57°38' E 008°51'40 8.9
2018-Apr-19 16:01N 57°44' E 010°04'0 9.0
2018-Apr-19 15:59N 57°44' E 010°05'6 9.1
2018-Apr-19 15:17N 57°45' E 010°16'3 9.1
2018-Apr-19 14:58N 57°45' E 010°22'11 9.2
2018-Apr-19 13:44N 57°46' E 010°43'2 8.4
2018-Apr-19 13:30N 57°44' E 010°42'4 5.8
2018-Apr-19 12:51N 57°43' E 010°35'0 0.0
2018-Apr-19 12:28N 57°43' E 010°35'0 0.0
2018-Apr-19 12:00N 57°43' E 010°35'0 0.0
2018-Apr-19 11:22N 57°43' E 010°35'0 0.0
2018-Apr-19 10:59N 57°43' E 010°35'0 0.0
2018-Apr-19 10:30N 57°43' E 010°35'0 0.0
2018-Apr-19 09:55N 57°43' E 010°35'0 0.3
2018-Apr-19 09:30N 57°43' E 010°36'0 0.0
2018-Apr-19 09:00N 57°43' E 010°36'3 3.9
2018-Apr-19 08:09N 57°44' E 010°42'1 8.8
2018-Apr-19 08:00N 57°45' E 010°43'4 9.0
2018-Apr-19 07:30N 57°48' E 010°36'5 9.5
2018-Apr-19 06:56N 57°50' E 010°27'7 9.4
2018-Apr-19 06:13N 57°54' E 010°17'10 9.0
2018-Apr-19 05:04N 57°59' E 009°59'10 7.4
2018-Apr-19 03:45N 58°03' E 009°43'5 1.6
2018-Apr-19 00:47N 58°00' E 009°35'1 2.1
2018-Apr-19 00:22N 57°60' E 009°33'6 2.0
2018-Apr-18 21:17N 57°57' E 009°23'5 2.1
2018-Apr-18 18:48N 57°55' E 009°14'1 2.1
2018-Apr-18 18:10N 57°54' E 009°12'5 2.1
2018-Apr-18 15:33N 57°53' E 009°02'1 2.1
2018-Apr-18 15:02N 57°52' E 009°00'1 2.0
2018-Apr-18 14:34N 57°52' E 008°59'1 1.9
2018-Apr-18 14:18N 57°51' E 008°58'1 1.9
2018-Apr-18 13:59N 57°51' E 008°57'3 3.2
2018-Apr-18 12:58N 57°50' E 008°51'1 0.5
2018-Apr-18 11:40N 57°50' E 008°52'1 1.4
2018-Apr-18 11:04N 57°50' E 008°50'0 6.0
2018-Apr-18 11:00N 57°49' E 008°50'3 5.9
2018-Apr-18 10:31N 57°48' E 008°45'1 1.3
2018-Apr-18 09:51N 57°47' E 008°46'6 0.4
2018-Apr-17 20:20N 57°44' E 008°37'1 2.1
2018-Apr-17 20:01N 57°44' E 008°36'1 2.4
2018-Apr-17 19:31N 57°44' E 008°34'2 4.0
2018-Apr-17 19:00N 57°43' E 008°37'2 0.1
2018-Apr-16 11:14N 57°45' E 008°39'0 2.0
2018-Apr-16 11:00N 57°45' E 008°38'  

Dump ship's entire track history